Time;durP1;ratioP1;P1;durP2;ratioP2;P2;SDS_P1;SDS_P2;PMS_P1;PMS_P2;Temp;Humidity;BMP_temperature;BMP_pressure;BME280_temperature;BME280_humidity;BME280_pressure;Samples;Min_cycle;Max_cycle;Signal;HPM_P1;HPM_P2
2022/01/22 00:00:25;;;;;;;45.47;26.70;;;;;;;-3.83;81.72;97001.78;5014122;28;20559;-57
2022/01/22 00:02:51;;;;;;;42.28;27.25;;;;;;;-3.81;81.08;97003.47;5014114;28;20493;-56
2022/01/22 00:05:19;;;;;;;58.08;32.97;;;;;;;-3.80;80.21;97010.31;5013907;28;20036;-57
2022/01/22 00:07:44;;;;;;;50.13;32.55;;;;;;;-3.81;80.77;97012.91;5013943;28;20034;-58
2022/01/22 00:10:16;;;;;;;45.40;29.05;;;;;;;-3.85;80.87;97012.13;5013773;28;20091;-58
2022/01/22 00:15:18;;;;;;;47.30;27.20;;;;;;;-3.92;81.93;97007.91;5013638;28;20030;-56
2022/01/22 00:17:45;;;;;;;42.13;25.13;;;;;;;-3.92;81.31;97011.34;5013814;28;20094;-57
2022/01/22 00:20:12;;;;;;;37.90;25.33;;;;;;;-3.94;82.43;97009.66;5014001;28;20030;-58
2022/01/22 00:22:38;;;;;;;39.35;22.63;;;;;;;-3.94;82.22;97015.66;5013842;28;20482;-57
2022/01/22 00:25:08;;;;;;;37.67;21.52;;;;;;;-3.94;82.32;97013.09;5013534;28;20030;-57
2022/01/22 00:27:35;;;;;;;31.48;20.52;;;;;;;-3.96;82.05;97011.41;5013952;28;20030;-55
2022/01/22 00:30:01;;;;;;;33.78;19.45;;;;;;;-4.01;83.60;97013.19;5013542;28;20029;-56
2022/01/22 00:32:26;;;;;;;28.92;16.42;;;;;;;-3.99;83.10;97016.59;5013520;28;20410;-57
2022/01/22 00:34:51;;;;;;;26.30;15.75;;;;;;;-3.97;82.91;97009.69;5013465;28;20046;-57
2022/01/22 00:37:17;;;;;;;29.48;19.60;;;;;;;-3.98;81.71;97015.72;5007061;28;20033;-57
2022/01/22 00:39:43;;;;;;;47.22;28.23;;;;;;;-4.00;81.86;97014.91;5013217;28;20037;-56
2022/01/22 00:42:10;;;;;;;39.33;23.77;;;;;;;-4.04;81.99;97004.66;5013711;28;20030;-57
2022/01/22 00:44:36;;;;;;;41.72;25.48;;;;;;;-4.00;81.82;97002.03;5013368;28;20030;-57
2022/01/22 00:47:02;;;;;;;30.58;20.55;;;;;;;-4.04;81.51;97011.50;5012806;28;20084;-57
2022/01/22 00:49:29;;;;;;;25.77;16.83;;;;;;;-4.14;83.27;97022.78;5013927;28;20026;-58
2022/01/22 00:51:55;;;;;;;19.08;13.48;;;;;;;-4.21;84.09;97014.28;5013320;28;20069;-58
2022/01/22 00:54:20;;;;;;;21.00;12.88;;;;;;;-4.08;82.57;97009.84;5013088;28;20018;-57
2022/01/22 00:56:46;;;;;;;17.80;11.15;;;;;;;-4.14;82.26;97015.91;5013052;28;20463;-58
2022/01/22 00:59:11;;;;;;;15.40;11.38;;;;;;;-4.17;82.58;97015.94;5012797;28;20029;-57
2022/01/22 01:01:36;;;;;;;18.38;10.60;;;;;;;-4.22;83.98;97017.75;5013071;28;20026;-56
2022/01/22 01:04:03;;;;;;;19.80;14.63;;;;;;;-4.19;83.38;97022.84;5012788;28;20073;-57
2022/01/22 01:06:29;;;;;;;16.92;12.02;;;;;;;-4.23;84.03;97031.47;5012911;28;20117;-57
2022/01/22 01:08:54;;;;;;;21.70;12.90;;;;;;;-4.23;84.12;97028.91;5012939;28;20084;-57
2022/01/22 01:11:23;;;;;;;26.45;12.95;;;;;;;-4.24;83.73;97037.47;5013094;28;20022;-57
2022/01/22 01:13:55;;;;;;;24.27;14.95;;;;;;;-4.27;83.03;97035.78;5012749;28;20061;-58
2022/01/22 01:16:42;;;;;;;24.88;16.02;;;;;;;-4.27;83.58;97040.09;5011319;28;20402;-57
2022/01/22 01:35:27;;;;;;;74.35;35.40;;;;;;;-4.46;83.88;97037.72;5012246;28;20121;-57
2022/01/22 01:37:54;;;;;;;109.57;42.47;;;;;;;-4.47;84.33;97042.00;5012274;28;20409;-56
2022/01/22 01:40:22;;;;;;;56.55;27.65;;;;;;;-4.58;84.60;97048.13;5012272;28;20033;-56
2022/01/22 01:43:04;;;;;;;44.05;18.95;;;;;;;-4.66;85.93;97049.06;5012719;28;20026;-57
2022/01/22 01:45:30;;;;;;;30.88;13.95;;;;;;;-4.67;85.18;97047.38;5012182;28;20417;-56
2022/01/22 01:47:57;;;;;;;20.08;11.05;;;;;;;-4.62;84.49;97043.03;5012265;28;20060;-58
2022/01/22 01:50:23;;;;;;;29.38;14.95;;;;;;;-4.60;84.18;97046.44;5011944;28;20041;-58
2022/01/22 01:53:04;;;;;;;37.65;19.00;;;;;;;-4.61;84.05;97044.72;5011908;28;20026;-57
2022/01/22 01:55:36;;;;;;;40.95;18.55;;;;;;;-4.62;85.29;97035.31;5011467;28;20061;-57
2022/01/22 01:58:03;;;;;;;34.65;16.85;;;;;;;-4.70;85.86;97038.81;5010461;28;20032;-57
2022/01/22 02:00:29;;;;;;;38.42;17.80;;;;;;;-4.73;86.34;97028.59;5012114;28;20428;-57
2022/01/22 02:02:55;;;;;;;26.75;16.33;;;;;;;-4.78;85.81;97029.47;5011876;28;20034;-56
2022/01/22 02:05:22;;;;;;;31.30;15.48;;;;;;;-4.80;86.46;97022.66;5012156;28;20065;-57
2022/01/22 02:07:50;;;;;;;25.77;13.70;;;;;;;-4.79;86.98;97032.06;5011933;28;20030;-56
2022/01/22 02:10:21;;;;;;;24.17;13.75;;;;;;;-4.79;87.42;97034.63;5011706;28;20025;-57
2022/01/22 02:23:37;;;;;;;27.52;13.13;;;;;;;-4.82;86.78;97026.94;5011697;28;20095;-56
2022/01/22 02:26:08;;;;;;;28.17;14.35;;;;;;;-4.87;86.79;97029.56;5011882;28;20038;-58
2022/01/22 02:28:34;;;;;;;24.35;13.93;;;;;;;-4.91;87.64;97021.03;5011282;28;20033;-57
2022/01/22 02:31:20;;;;;;;33.42;14.45;;;;;;;-4.93;86.93;97012.50;5011417;28;20033;-58
2022/01/22 02:36:25;;;;;;;28.40;14.40;;;;;;;-4.99;87.36;97015.09;5011556;28;20034;-58
2022/01/22 02:39:08;;;;;;;26.02;14.07;;;;;;;-4.97;87.06;97008.28;5011376;28;20276;-57
2022/01/22 02:41:36;;;;;;;19.50;10.98;;;;;;;-5.00;86.74;97012.56;5009226;28;20026;-56
2022/01/22 02:44:01;;;;;;;27.25;13.38;;;;;;;-5.03;87.75;97006.59;5011262;28;20021;-58
2022/01/22 02:46:28;;;;;;;23.27;13.18;;;;;;;-5.04;87.44;97004.03;5010942;28;21784;-58
2022/01/22 02:48:56;;;;;;;21.58;11.63;;;;;;;-5.03;87.00;97003.16;5011662;28;20022;-58
2022/01/22 02:51:26;;;;;;;21.75;12.88;;;;;;;-5.04;87.31;97004.91;5011127;28;20025;-56
2022/01/22 02:53:54;;;;;;;21.15;12.63;;;;;;;-5.08;87.26;97005.81;5009943;28;20029;-57
2022/01/22 02:56:22;;;;;;;24.88;15.25;;;;;;;-5.06;86.78;97001.50;5010576;28;20104;-58
2022/01/22 02:58:48;;;;;;;22.77;13.50;;;;;;;-5.08;86.92;97010.06;5011163;28;20038;-56
2022/01/22 03:01:16;;;;;;;25.83;14.05;;;;;;;-5.12;87.29;97011.81;5010006;28;20030;-57
2022/01/22 03:03:41;;;;;;;21.92;13.75;;;;;;;-5.06;86.16;97004.06;5010343;28;20113;-57
2022/01/22 03:06:07;;;;;;;26.10;13.00;;;;;;;-4.99;85.96;97006.56;5011149;28;20040;-55
2022/01/22 03:08:33;;;;;;;25.80;13.88;;;;;;;-5.01;86.15;97011.72;5010972;28;20060;-57
2022/01/22 03:11:01;;;;;;;21.75;14.20;;;;;;;-5.03;86.48;97004.03;5010869;28;20026;-58
2022/01/22 03:19:07;;;;;;;20.25;12.25;;;;;;;-5.24;88.51;97015.31;5010931;28;20117;-58
2022/01/22 03:21:43;;;;;;;16.92;11.63;;;;;;;-5.28;88.54;97016.22;5010822;28;20037;-57
2022/01/22 03:29:51;;;;;;;25.48;13.07;;;;;;;-5.26;88.31;97013.66;4987053;28;20041;-56
2022/01/22 03:32:17;;;;;;;21.45;13.27;;;;;;;-5.25;88.04;97015.34;5010297;28;20796;-57
2022/01/22 03:34:55;;;;;;;22.83;13.68;;;;;;;-5.27;87.93;97023.06;5010706;28;20097;-58
2022/01/22 03:37:20;;;;;;;28.92;15.68;;;;;;;-5.32;88.68;97017.97;5010643;28;20022;-56
2022/01/22 03:39:46;;;;;;;48.83;22.42;;;;;;;-5.27;87.64;97012.78;5010642;28;20029;-57
2022/01/22 03:42:11;;;;;;;32.40;17.15;;;;;;;-5.24;87.59;97007.63;5010917;28;20053;-57
2022/01/22 03:44:36;;;;;;;36.28;17.77;;;;;;;-5.22;87.87;97007.63;5010766;28;20076;-56
2022/01/22 03:47:02;;;;;;;27.13;15.32;;;;;;;-5.26;88.25;97009.34;5010323;28;20030;-56
2022/01/22 03:49:28;;;;;;;35.40;17.13;;;;;;;-5.33;89.20;97008.56;5010989;28;20030;-57
2022/01/22 03:51:53;;;;;;;35.33;18.38;;;;;;;-5.39;89.56;97010.34;5010603;28;20026;-57
2022/01/22 03:54:19;;;;;;;36.45;17.98;;;;;;;-5.42;91.23;97012.91;5010570;28;20040;-57
2022/01/22 03:56:46;;;;;;;32.53;17.13;;;;;;;-5.45;91.09;97006.09;5009003;28;20033;-58
2022/01/22 03:59:13;;;;;;;28.77;16.10;;;;;;;-5.48;90.37;97004.41;5010425;28;20482;-58
2022/01/22 04:04:09;;;;;;;27.88;14.75;;;;;;;-5.43;89.56;97003.50;5010410;28;20022;-58
2022/01/22 04:07:05;;;;;;;26.20;14.43;;;;;;;-5.47;90.23;97011.22;5010690;28;20080;-58
2022/01/22 04:09:22;;;;;;;23.90;13.85;;;;;;;-5.49;90.42;97007.00;5010595;28;20437;-59
2022/01/22 04:11:48;;;;;;;19.02;10.93;;;;;;;-5.52;89.31;97007.84;5010515;28;20119;-58
2022/01/22 04:14:21;;;;;;;15.68;11.25;;;;;;;-5.52;89.92;97010.41;5012155;28;20021;-58
2022/01/22 04:24:55;;;;;;;17.77;9.68;;;;;;;-5.58;88.91;97020.75;5013742;28;20041;-59
2022/01/22 04:27:24;;;;;;;12.52;8.50;;;;;;;-5.56;88.62;97019.00;5013387;28;20032;-58
2022/01/22 04:29:57;;;;;;;12.82;9.13;;;;;;;-5.59;89.11;97021.59;5013570;28;20042;-58
2022/01/22 04:32:26;;;;;;;16.23;9.18;;;;;;;-5.59;88.89;97021.59;5009233;28;20133;-58
2022/01/22 04:34:52;;;;;;;12.68;7.65;;;;;;;-5.57;89.27;97025.00;5014084;28;20462;-58
2022/01/22 04:37:18;;;;;;;12.60;8.20;;;;;;;-5.57;89.58;97025.00;5013486;28;20021;-58
2022/01/22 04:39:46;;;;;;;11.02;8.65;;;;;;;-5.60;89.70;97030.16;5013434;28;20084;-58
2022/01/22 04:42:11;;;;;;;7.78;6.97;;;;;;;-5.59;89.30;97029.31;5013791;28;20029;-58
2022/01/22 04:44:44;;;;;;;17.23;8.65;;;;;;;-5.62;90.38;97037.88;5013254;28;20037;-58
2022/01/22 04:52:43;;;;;;;12.65;8.35;;;;;;;-5.62;90.44;97040.44;4992395;28;20045;-58
2022/01/22 04:55:10;;;;;;;12.48;7.82;;;;;;;-5.60;89.90;97040.44;5013068;28;20081;-58
2022/01/22 04:57:39;;;;;;;9.82;7.40;;;;;;;-5.58;89.69;97032.72;5012937;28;20027;-58
2022/01/22 05:00:11;;;;;;;11.38;8.10;;;;;;;-5.59;89.13;97037.00;5012480;28;20021;-58
2022/01/22 05:02:36;;;;;;;11.85;8.40;;;;;;;-5.58;89.76;97040.41;5013111;28;20064;-58
2022/01/22 05:05:04;;;;;;;8.60;7.38;;;;;;;-5.59;89.66;97044.69;5013170;28;20041;-58
2022/01/22 05:07:29;;;;;;;12.52;7.63;;;;;;;-5.60;89.61;97045.56;5012868;28;20556;-58
2022/01/22 05:09:54;;;;;;;8.15;7.07;;;;;;;-5.63;89.55;97046.44;5012802;28;20165;-58
2022/01/22 05:12:20;;;;;;;12.82;7.95;;;;;;;-5.64;89.51;97041.28;5012106;28;20038;-58
2022/01/22 05:14:45;;;;;;;11.77;8.13;;;;;;;-5.65;89.17;97039.59;5012354;28;20038;-58
2022/01/22 05:17:11;;;;;;;16.67;10.00;;;;;;;-5.67;89.86;97041.31;5011870;28;20056;-58
2022/01/22 05:22:34;;;;;;;11.73;8.57;;;;;;;-5.68;89.89;97042.19;5012610;28;20461;-58
2022/01/22 05:25:04;;;;;;;13.55;9.00;;;;;;;-5.70;91.20;97044.78;5011661;28;20030;-58
2022/01/22 05:30:07;;;;;;;10.65;8.23;;;;;;;-5.72;89.40;97046.50;5012538;28;20034;-58
2022/01/22 05:37:42;;;;;;;10.40;8.70;;;;;;;-5.78;90.67;97056.78;5003865;28;20034;-58
2022/01/22 05:40:08;;;;;;;14.75;7.80;;;;;;;-5.83;90.25;97058.50;5011410;28;20022;-58
2022/01/22 05:42:36;;;;;;;11.88;8.40;;;;;;;-5.81;89.75;97067.91;5012684;28;20022;-58
2022/01/22 05:45:03;;;;;;;12.13;8.02;;;;;;;-5.81;89.44;97057.66;5012050;28;20537;-57
2022/01/22 05:47:29;;;;;;;11.15;8.13;;;;;;;-5.81;89.26;97067.06;5012112;28;20040;-57
2022/01/22 05:49:55;;;;;;;12.95;7.82;;;;;;;-5.82;89.57;97061.09;5012645;28;20025;-58
2022/01/22 05:52:30;;;;;;;28.17;17.02;;;;;;;-5.84;90.11;97065.38;5011984;28;20041;-58
2022/01/22 06:00:11;;;;;;;18.83;11.90;;;;;;;-5.93;89.97;97065.41;5008014;28;20029;-57
2022/01/22 06:02:36;;;;;;;23.73;12.80;;;;;;;-5.95;90.63;97062.00;5011182;28;20022;-58
2022/01/22 06:05:01;;;;;;;23.00;12.55;;;;;;;-5.97;90.51;97063.72;5011402;28;20030;-58
2022/01/22 06:07:27;;;;;;;18.67;12.73;;;;;;;-5.97;89.93;97059.47;5011156;28;20029;-57
2022/01/22 06:15:01;;;;;;;16.98;11.88;;;;;;;-6.08;91.52;97054.41;5010775;28;20035;-58
2022/01/22 06:17:26;;;;;;;15.20;10.48;;;;;;;-6.10;90.92;97058.66;5011342;28;20050;-58
2022/01/22 06:19:51;;;;;;;13.65;9.68;;;;;;;-6.10;91.02;97057.81;5012134;28;20083;-58
2022/01/22 06:22:17;;;;;;;14.48;9.82;;;;;;;-6.09;90.91;97068.06;5011165;28;20056;-57
2022/01/22 06:24:42;;;;;;;12.75;9.23;;;;;;;-6.10;91.48;97070.66;5009972;28;20442;-57
2022/01/22 06:27:08;;;;;;;13.63;9.90;;;;;;;-6.12;91.14;97068.06;5011357;28;20026;-59
2022/01/22 06:29:33;;;;;;;10.23;9.02;;;;;;;-6.09;90.63;97070.63;5010102;28;20029;-57
2022/01/22 06:31:58;;;;;;;13.43;9.20;;;;;;;-6.09;91.49;97074.91;5011278;28;20025;-57
2022/01/22 06:34:24;;;;;;;9.80;8.75;;;;;;;-6.09;91.01;97073.19;5010806;28;20034;-57
2022/01/22 06:36:49;;;;;;;10.82;9.40;;;;;;;-6.10;91.04;97071.47;5010639;28;20045;-59
2022/01/22 06:39:17;;;;;;;13.77;9.43;;;;;;;-6.09;91.21;97078.31;5011225;28;20025;-56
2022/01/22 06:41:46;;;;;;;10.50;8.90;;;;;;;-6.11;90.39;97074.06;5011286;28;20477;-57
2022/01/22 06:44:14;;;;;;;15.88;9.20;;;;;;;-6.10;90.04;97080.91;5011228;28;20032;-57
2022/01/22 06:46:40;;;;;;;12.80;9.43;;;;;;;-6.09;90.21;97074.91;5011084;28;20047;-58
2022/01/22 06:49:06;;;;;;;23.23;14.15;;;;;;;-6.11;90.05;97079.19;5011735;28;20026;-58
2022/01/22 06:51:33;;;;;;;22.40;13.88;;;;;;;-6.13;90.31;97079.19;5010958;28;20026;-58
2022/01/22 06:53:58;;;;;;;21.02;11.38;;;;;;;-6.19;90.78;97081.78;5010971;28;20021;-58
2022/01/22 06:56:25;;;;;;;19.85;11.88;;;;;;;-6.19;91.66;97079.22;5011021;28;20037;-58
2022/01/22 06:58:50;;;;;;;19.25;12.32;;;;;;;-6.13;91.26;97080.91;5011468;28;20369;-58
2022/01/22 07:01:16;;;;;;;23.25;13.98;;;;;;;-6.14;90.49;97077.50;5010876;28;20030;-58
2022/01/22 07:03:41;;;;;;;29.20;14.88;;;;;;;-6.19;89.60;97076.66;5011139;28;20017;-57
2022/01/22 07:06:07;;;;;;;19.45;12.77;;;;;;;-6.22;90.94;97077.50;5009842;28;20022;-57
2022/01/22 07:08:32;;;;;;;19.98;13.73;;;;;;;-6.23;90.60;97080.94;5011101;28;20104;-60
2022/01/22 07:10:58;;;;;;;22.08;12.48;;;;;;;-6.24;90.34;97093.78;5010922;28;20029;-58
2022/01/22 07:13:23;;;;;;;18.85;12.52;;;;;;;-6.27;91.24;97093.78;5010771;28;20022;-56
2022/01/22 07:15:49;;;;;;;19.95;13.68;;;;;;;-6.26;91.78;97098.06;5010861;28;20417;-58
2022/01/22 07:18:14;;;;;;;21.38;14.13;;;;;;;-6.23;91.78;97098.88;5010735;28;20049;-60
2022/01/22 07:20:44;;;;;;;14.77;11.68;;;;;;;-6.19;91.43;97089.47;5011374;28;20117;-58
2022/01/22 07:26:03;;;;;;;16.45;11.75;;;;;;;-6.21;90.85;97106.59;4987986;28;20041;-59
2022/01/22 07:28:29;;;;;;;14.55;11.80;;;;;;;-6.18;90.71;97098.88;5010818;28;20324;-60
2022/01/22 07:30:54;;;;;;;18.48;13.88;;;;;;;-6.13;91.09;97097.16;5010766;28;20409;-58
2022/01/22 07:33:20;;;;;;;16.05;13.75;;;;;;;-6.12;91.09;97098.84;5010612;28;20033;-58
2022/01/22 07:35:49;;;;;;;19.15;13.73;;;;;;;-6.10;90.86;97103.97;5010832;28;20040;-58
2022/01/22 07:38:14;;;;;;;18.33;13.25;;;;;;;-6.08;90.89;97095.44;5010493;28;20076;-60
2022/01/22 07:40:40;;;;;;;13.75;12.32;;;;;;;-6.07;90.94;97091.16;5010728;28;20122;-61
2022/01/22 07:43:05;;;;;;;18.13;11.75;;;;;;;-6.03;90.83;97097.13;5011140;28;20030;-60
2022/01/22 07:45:31;;;;;;;16.88;11.65;;;;;;;-6.02;91.48;97091.97;5010500;28;20026;-60
2022/01/22 07:47:56;;;;;;;25.63;13.38;;;;;;;-6.00;91.56;97097.06;5010574;28;20498;-56
2022/01/22 07:50:22;;;;;;;21.73;15.68;;;;;;;-6.01;90.91;97095.41;5014578;28;20506;-56
2022/01/22 07:52:47;;;;;;;21.88;16.23;;;;;;;-5.99;91.00;97093.66;5007074;28;20022;-57
2022/01/22 07:55:15;;;;;;;21.92;15.68;;;;;;;-5.96;90.58;97098.75;5012316;28;20030;-58
2022/01/22 07:57:41;;;;;;;20.55;16.10;;;;;;;-5.93;91.15;97094.47;5012878;28;20037;-59
2022/01/22 08:00:07;;;;;;;21.05;15.10;;;;;;;-5.88;90.36;97096.16;5012914;28;20026;-60
2022/01/22 08:02:33;;;;;;;18.52;14.32;;;;;;;-5.86;90.28;97095.28;5012704;28;20022;-58
2022/01/22 08:04:58;;;;;;;18.05;14.98;;;;;;;-5.82;89.98;97106.41;5011323;28;20404;-58
2022/01/22 08:07:23;;;;;;;19.83;15.73;;;;;;;-5.82;91.40;97103.84;5013489;28;20030;-58
2022/01/22 08:09:50;;;;;;;17.67;15.35;;;;;;;-5.80;92.02;97105.53;5013940;28;20516;-58
2022/01/22 08:12:17;;;;;;;19.65;15.75;;;;;;;-5.81;91.20;97102.97;5014306;28;20026;-60
2022/01/22 08:14:42;;;;;;;17.30;14.55;;;;;;;-5.83;90.80;97103.00;5014013;28;20048;-60
2022/01/22 08:17:07;;;;;;;20.13;15.23;;;;;;;-5.79;91.39;97101.25;5011909;28;20494;-58
2022/01/22 08:19:33;;;;;;;19.42;15.15;;;;;;;-5.77;91.33;97113.22;5013578;28;20033;-60
2022/01/22 08:21:58;;;;;;;18.08;13.05;;;;;;;-5.71;90.67;97102.09;5011755;28;20474;-55
2022/01/22 08:24:26;;;;;;;18.48;12.95;;;;;;;-5.67;91.35;97110.59;5013240;28;20109;-57
2022/01/22 08:27:08;;;;;;;15.45;11.82;;;;;;;-5.68;90.78;97104.63;5013598;28;20496;-58
2022/01/22 08:29:34;;;;;;;16.55;13.85;;;;;;;-5.66;90.51;97102.03;5005353;28;20018;-57
2022/01/22 08:37:21;;;;;;;13.35;11.93;;;;;;;-5.57;91.95;97091.75;5013003;28;20040;-57
2022/01/22 08:39:47;;;;;;;15.10;12.63;;;;;;;-5.53;91.64;97100.25;5013295;28;20026;-57
2022/01/22 08:42:12;;;;;;;15.45;12.95;;;;;;;-5.48;91.00;97099.38;5013636;28;20022;-58
2022/01/22 08:44:40;;;;;;;14.15;11.90;;;;;;;-5.40;90.37;97103.63;5010799;28;20041;-58
2022/01/22 08:47:06;;;;;;;18.15;13.25;;;;;;;-5.36;89.87;97103.56;5012789;28;20030;-57
2022/01/22 08:49:31;;;;;;;16.92;12.55;;;;;;;-5.34;90.09;97104.41;5017061;28;20036;-58
2022/01/22 08:51:57;;;;;;;26.90;20.27;;;;;;;-5.31;90.55;97108.69;5013097;28;20084;-57
2022/01/22 08:54:22;;;;;;;23.38;16.75;;;;;;;-5.30;90.71;97110.38;5013237;28;20037;-57
2022/01/22 08:56:47;;;;;;;19.98;15.55;;;;;;;-5.29;91.00;97113.81;5013088;28;20041;-56
2022/01/22 08:59:13;;;;;;;21.40;16.63;;;;;;;-5.24;91.94;97109.50;5012373;28;20139;-58
2022/01/22 09:01:40;;;;;;;29.20;18.40;;;;;;;-5.21;91.70;97114.63;5013069;28;20037;-60
2022/01/22 09:04:06;;;;;;;24.30;19.00;;;;;;;-5.18;92.39;97115.47;5011651;28;20109;-57
2022/01/22 09:06:32;;;;;;;23.88;19.80;;;;;;;-5.15;91.34;97109.44;5012958;28;20117;-56
2022/01/22 09:09:11;;;;;;;31.73;23.70;;;;;;;-5.04;90.11;97107.66;5011676;28;20065;-56
2022/01/22 09:11:39;;;;;;;34.55;26.92;;;;;;;-5.00;90.63;97112.75;5012464;28;20026;-57
2022/01/22 09:14:07;;;;;;;38.75;29.42;;;;;;;-4.99;90.96;97110.16;5011542;28;20030;-49
2022/01/22 09:16:33;;;;;;;30.17;25.25;;;;;;;-4.94;90.58;97108.44;5011672;28;20477;-51
2022/01/22 09:19:06;;;;;;;29.70;23.73;;;;;;;-4.91;90.35;97110.97;5012074;28;20084;-52
2022/01/22 09:21:35;;;;;;;26.92;22.63;;;;;;;-4.82;89.93;97110.03;5009389;28;20092;-57
2022/01/22 09:24:01;;;;;;;31.70;25.65;;;;;;;-4.43;89.47;97107.13;5011011;28;20026;-58
2022/01/22 09:26:28;;;;;;;67.07;40.75;;;;;;;-3.78;89.47;97111.53;5009837;28;20036;-55
2022/01/22 09:28:56;;;;;;;75.53;45.90;;;;;;;-3.11;86.09;97109.78;5009273;28;20557;-56
2022/01/22 09:31:21;;;;;;;45.63;28.42;;;;;;;-2.84;83.86;97105.94;5011334;28;20056;-58
2022/01/22 09:33:47;;;;;;;28.45;21.10;;;;;;;-2.57;83.11;97110.63;5011381;28;20405;-57
2022/01/22 09:36:12;;;;;;;34.83;23.55;;;;;;;-2.08;81.93;97099.44;5010870;28;20018;-55
2022/01/22 09:38:38;;;;;;;25.08;19.50;;;;;;;-1.56;81.17;97099.25;5010732;28;20030;-55
2022/01/22 09:41:03;;;;;;;21.75;14.88;;;;;;;-1.22;78.26;97090.72;5019184;28;20514;-55
2022/01/22 09:43:29;;;;;;;19.15;14.48;;;;;;;-0.76;76.75;97088.81;5008662;28;20080;-52
2022/01/22 09:45:54;;;;;;;21.15;16.08;;;;;;;-0.48;74.16;97092.44;5010767;28;20037;-56
2022/01/22 09:48:19;;;;;;;13.60;12.00;;;;;;;-0.52;74.79;97086.47;5005732;28;20409;-54
2022/01/22 09:50:45;;;;;;;20.15;15.05;;;;;;;-0.25;72.57;97096.16;5009588;28;20077;-56
2022/01/22 09:53:10;;;;;;;17.65;12.07;;;;;;;-0.10;69.47;97093.19;5008471;28;20112;-56
2022/01/22 09:55:35;;;;;;;14.98;11.57;;;;;;;-0.06;69.52;97094.78;5008777;28;20484;-54
2022/01/22 09:58:01;;;;;;;17.30;12.32;;;;;;;0.21;72.54;97096.63;5011124;28;20025;-55
2022/01/22 10:00:27;;;;;;;14.00;11.25;;;;;;;0.13;69.49;97096.88;5011656;28;20031;-58
2022/01/22 10:02:56;;;;;;;13.13;10.68;;;;;;;0.10;69.03;97099.53;5011781;28;20026;-56
2022/01/22 10:05:31;;;;;;;17.45;8.77;;;;;;;0.18;69.84;97097.59;5011522;28;20022;-55
2022/01/22 10:08:28;;;;;;;9.55;8.20;;;;;;;0.51;67.24;97104.44;5012153;28;20057;-55
2022/01/22 10:10:56;;;;;;;9.52;8.52;;;;;;;0.74;65.18;97098.53;5011730;28;20501;-57
2022/01/22 10:13:41;;;;;;;13.00;9.20;;;;;;;0.69;64.82;97098.69;5010180;28;20166;-55
2022/01/22 10:16:30;;;;;;;8.75;7.95;;;;;;;0.88;63.73;97099.88;5009393;28;20079;-55
2022/01/22 10:19:31;;;;;;;9.48;7.47;;;;;;;0.79;64.74;97103.59;5010037;28;20108;-57
2022/01/22 10:22:03;;;;;;;11.73;8.30;;;;;;;0.68;63.56;97106.50;4951077;29;20042;-58
2022/01/22 10:24:37;;;;;;;7.50;6.65;;;;;;;0.67;64.74;97100.50;4999365;28;20073;-57
2022/01/22 10:27:37;;;;;;;25.52;11.90;;;;;;;0.77;64.66;97097.59;5010374;28;20105;-58
2022/01/22 10:30:12;;;;;;;10.07;6.82;;;;;;;0.94;62.73;97102.25;5006428;28;20034;-55
2022/01/22 10:32:50;;;;;;;9.15;7.63;;;;;;;1.12;63.68;97099.09;5010012;28;20029;-57
2022/01/22 10:35:23;;;;;;;9.98;8.00;;;;;;;1.19;63.54;97093.69;5010260;28;20036;-58
2022/01/22 10:37:54;;;;;;;21.70;11.45;;;;;;;1.32;64.07;97092.41;5010618;28;20045;-57
2022/01/22 10:40:36;;;;;;;12.18;8.23;;;;;;;1.55;61.99;97089.06;5005682;28;20053;-58
2022/01/22 10:43:16;;;;;;;9.27;7.53;;;;;;;1.78;60.83;97084.84;5004033;28;20460;-57
2022/01/22 10:45:59;;;;;;;9.63;8.00;;;;;;;1.83;58.59;97093.31;5008522;28;20018;-57
2022/01/22 10:48:25;;;;;;;8.88;7.63;;;;;;;1.91;58.98;97094.78;5010064;28;20029;-57
2022/01/22 10:51:05;;;;;;;11.40;8.48;;;;;;;2.16;58.33;97094.75;5011422;28;20462;-58
2022/01/22 10:53:49;;;;;;;11.38;7.22;;;;;;;2.20;57.03;97095.47;5007943;28;20061;-58
2022/01/22 10:56:20;;;;;;;14.82;9.07;;;;;;;2.40;58.60;97090.41;5009219;28;20033;-56
2022/01/22 10:59:07;;;;;;;13.02;8.88;;;;;;;2.32;57.12;97095.03;5005468;28;20029;-57
2022/01/22 11:01:55;;;;;;;9.77;7.65;;;;;;;2.40;57.90;97093.00;5008518;28;20501;-56
2022/01/22 11:04:44;;;;;;;9.98;7.90;;;;;;;2.48;57.44;97073.69;5009856;28;20034;-57
2022/01/22 11:07:16;;;;;;;18.42;10.18;;;;;;;2.97;57.94;97070.91;5009056;28;20304;-55
2022/01/22 11:09:42;;;;;;;13.43;9.05;;;;;;;3.03;56.39;97067.22;5010406;28;20026;-56
2022/01/22 11:12:08;;;;;;;9.57;7.95;;;;;;;2.92;56.88;97062.44;5010603;28;20022;-56
2022/01/22 11:14:36;;;;;;;8.82;7.40;;;;;;;3.19;55.62;97052.69;5009509;28;20545;-53
2022/01/22 11:17:02;;;;;;;15.82;8.95;;;;;;;3.26;53.82;97055.91;5007106;28;20465;-56
2022/01/22 11:19:33;;;;;;;14.85;10.00;;;;;;;3.57;55.33;97054.59;5009937;28;20026;-55
2022/01/22 11:22:09;;;;;;;8.65;7.75;;;;;;;3.80;55.21;97056.25;5003417;28;20113;-54
2022/01/22 11:24:38;;;;;;;8.60;7.55;;;;;;;3.80;53.43;97058.84;5007657;28;20440;-57
2022/01/22 11:27:07;;;;;;;11.68;6.65;;;;;;;3.42;52.62;97056.09;5014745;28;20454;-58
2022/01/22 11:29:49;;;;;;;11.93;6.75;;;;;;;3.69;53.12;97054.09;5014500;28;20026;-57
2022/01/22 11:32:18;;;;;;;7.90;5.78;;;;;;;3.78;53.69;97054.59;5006454;28;20045;-56
2022/01/22 11:34:45;;;;;;;9.98;7.78;;;;;;;3.67;52.71;97053.31;5013389;28;20022;-58
2022/01/22 11:37:44;;;;;;;11.25;6.47;;;;;;;3.49;51.90;97056.69;5013520;28;20061;-59
2022/01/22 11:40:14;;;;;;;6.75;5.93;;;;;;;3.88;53.01;97042.88;5010001;28;20156;-57
2022/01/22 11:43:09;;;;;;;9.20;6.85;;;;;;;4.16;50.72;97042.47;5006505;28;20061;-55
2022/01/22 11:45:49;;;;;;;8.38;6.25;;;;;;;4.15;50.34;97046.00;5008143;28;20029;-56
2022/01/22 11:48:17;;;;;;;6.88;6.18;;;;;;;4.22;50.37;97035.31;5014241;28;20022;-57
2022/01/22 11:50:46;;;;;;;11.98;8.00;;;;;;;4.55;50.70;97038.13;5014658;28;20048;-58
2022/01/22 11:53:32;;;;;;;10.80;7.15;;;;;;;4.88;49.31;97032.22;5014386;28;20034;-58
2022/01/22 11:56:10;;;;;;;;;;;;;;;4.78;48.32;97025.78;5014602;28;20103;-58
2022/01/22 11:58:58;;;;;;;6.22;5.53;;;;;;;5.25;48.30;97021.75;5014247;28;19913;-57
2022/01/22 12:01:46;;;;;;;7.68;6.80;;;;;;;5.47;48.24;97012.84;5014077;28;20030;-57
2022/01/22 12:04:14;;;;;;;6.05;5.43;;;;;;;5.72;48.07;97008.97;5010791;28;20493;-57
2022/01/22 12:07:00;;;;;;;6.10;5.07;;;;;;;5.62;46.74;97008.59;5012840;28;20072;-56
2022/01/22 12:09:26;;;;;;;7.97;5.70;;;;;;;5.60;47.10;97005.22;5020570;28;20444;-57
2022/01/22 12:14:47;;;;;;;7.28;6.57;;;;;;;5.57;47.91;97011.47;5012569;28;20048;-57
2022/01/22 12:17:18;;;;;;;6.70;5.63;;;;;;;5.33;47.49;97003.09;5012424;28;20755;-56
2022/01/22 12:22:39;;;;;;;5.88;5.05;;;;;;;5.38;47.62;97005.47;5012106;28;20036;-56
2022/01/22 12:25:13;;;;;;;6.72;5.40;;;;;;;5.56;48.37;96999.31;5011761;28;20029;-57
2022/01/22 12:27:47;;;;;;;9.18;5.55;;;;;;;5.52;47.52;97002.16;5010731;28;20022;-57
2022/01/22 12:30:14;;;;;;;6.60;5.25;;;;;;;5.59;45.64;96988.72;5009910;28;20014;-58
2022/01/22 12:32:44;;;;;;;6.85;5.60;;;;;;;5.34;48.28;96983.06;5010980;28;20482;-57
2022/01/22 12:35:15;;;;;;;7.85;5.53;;;;;;;5.28;47.24;96989.44;5010717;28;20042;-58
2022/01/22 12:37:46;;;;;;;7.90;5.70;;;;;;;5.35;46.63;96995.19;5008955;28;20382;-57
2022/01/22 12:40:12;;;;;;;8.95;6.43;;;;;;;5.35;45.89;96992.59;5011284;28;20374;-57
2022/01/22 12:43:09;;;;;;;5.88;5.32;;;;;;;5.52;46.43;96982.09;5010878;28;20524;-58
2022/01/22 12:45:37;;;;;;;5.80;5.20;;;;;;;5.89;46.35;96987.19;5012300;28;20092;-58
2022/01/22 12:48:03;;;;;;;8.02;5.68;;;;;;;5.59;45.99;96974.78;5009692;28;20165;-58
2022/01/22 12:50:32;;;;;;;9.18;5.85;;;;;;;5.66;46.64;96983.16;5011734;28;20022;-57
2022/01/22 12:53:04;;;;;;;7.35;5.68;;;;;;;5.56;46.79;96973.19;5010110;28;20029;-57
2022/01/22 12:55:49;;;;;;;10.20;6.50;;;;;;;5.38;45.86;96969.75;5011060;28;20482;-58
2022/01/22 12:58:31;;;;;;;7.65;6.07;;;;;;;5.60;46.39;96968.63;5009762;28;20485;-58
2022/01/22 13:01:21;;;;;;;8.57;6.35;;;;;;;5.54;47.18;96968.97;5009781;28;20035;-58
2022/01/22 13:03:49;;;;;;;7.88;6.45;;;;;;;5.24;46.75;96970.44;5004871;28;20041;-57
2022/01/22 13:06:17;;;;;;;13.65;10.02;;;;;;;4.97;46.64;96960.47;5008170;28;20088;-58
2022/01/22 13:08:42;;;;;;;12.55;7.85;;;;;;;4.89;48.14;96970.47;5009756;28;20430;-56